sensor_id;sensor_type;location;lat;lon;timestamp;P1;durP1;ratioP1;P2;durP2;ratioP2
50301;SDS011;36550;50.472;19.744;2023-11-21T00:01:37;7.00;;;2.30;;
50301;SDS011;36550;50.472;19.744;2023-11-21T00:04:21;6.80;;;3.10;;
50301;SDS011;36550;50.472;19.744;2023-11-21T00:07:06;4.90;;;2.70;;
50301;SDS011;36550;50.472;19.744;2023-11-21T00:09:50;5.70;;;2.40;;
50301;SDS011;36550;50.472;19.744;2023-11-21T00:12:34;5.30;;;2.50;;
50301;SDS011;36550;50.472;19.744;2023-11-21T00:15:20;4.70;;;2.10;;
50301;SDS011;36550;50.472;19.744;2023-11-21T00:18:06;6.20;;;2.70;;
50301;SDS011;36550;50.472;19.744;2023-11-21T00:20:50;5.70;;;2.90;;
50301;SDS011;36550;50.472;19.744;2023-11-21T00:23:34;7.50;;;3.00;;
50301;SDS011;36550;50.472;19.744;2023-11-21T00:26:19;6.10;;;2.50;;
50301;SDS011;36550;50.472;19.744;2023-11-21T00:29:03;5.30;;;3.00;;
50301;SDS011;36550;50.472;19.744;2023-11-21T00:31:47;6.70;;;2.70;;
50301;SDS011;36550;50.472;19.744;2023-11-21T00:34:32;5.80;;;2.80;;
50301;SDS011;36550;50.472;19.744;2023-11-21T00:37:16;5.70;;;3.50;;
50301;SDS011;36550;50.472;19.744;2023-11-21T00:40:01;10.90;;;7.50;;
50301;SDS011;36550;50.472;19.744;2023-11-21T00:42:51;5.80;;;2.90;;
50301;SDS011;36550;50.472;19.744;2023-11-21T00:45:35;4.50;;;2.10;;
50301;SDS011;36550;50.472;19.744;2023-11-21T00:48:20;7.50;;;3.20;;
50301;SDS011;36550;50.472;19.744;2023-11-21T00:51:04;2.70;;;1.90;;
50301;SDS011;36550;50.472;19.744;2023-11-21T00:53:50;6.40;;;4.80;;
50301;SDS011;36550;50.472;19.744;2023-11-21T00:56:34;2.70;;;1.60;;
50301;SDS011;36550;50.472;19.744;2023-11-21T00:59:18;3.90;;;2.60;;
50301;SDS011;36550;50.472;19.744;2023-11-21T01:02:02;3.00;;;1.80;;
50301;SDS011;36550;50.472;19.744;2023-11-21T01:04:49;6.10;;;3.40;;
50301;SDS011;36550;50.472;19.744;2023-11-21T01:07:33;3.00;;;1.60;;
50301;SDS011;36550;50.472;19.744;2023-11-21T01:10:18;4.10;;;1.70;;
50301;SDS011;36550;50.472;19.744;2023-11-21T01:13:02;3.30;;;1.90;;
50301;SDS011;36550;50.472;19.744;2023-11-21T01:15:51;4.70;;;2.50;;
50301;SDS011;36550;50.472;19.744;2023-11-21T01:18:35;3.00;;;2.00;;
50301;SDS011;36550;50.472;19.744;2023-11-21T01:21:20;5.20;;;1.70;;
50301;SDS011;36550;50.472;19.744;2023-11-21T01:24:04;3.50;;;1.60;;
50301;SDS011;36550;50.472;19.744;2023-11-21T01:26:51;3.10;;;1.60;;
50301;SDS011;36550;50.472;19.744;2023-11-21T01:29:35;3.80;;;1.70;;
50301;SDS011;36550;50.472;19.744;2023-11-21T01:32:19;4.20;;;2.70;;
50301;SDS011;36550;50.472;19.744;2023-11-21T01:35:04;3.20;;;1.50;;
50301;SDS011;36550;50.472;19.744;2023-11-21T01:37:50;2.70;;;1.50;;
50301;SDS011;36550;50.472;19.744;2023-11-21T01:40:35;3.70;;;1.90;;
50301;SDS011;36550;50.472;19.744;2023-11-21T01:43:20;3.60;;;1.90;;
50301;SDS011;36550;50.472;19.744;2023-11-21T01:46:04;3.50;;;1.60;;
50301;SDS011;36550;50.472;19.744;2023-11-21T01:48:50;2.80;;;1.60;;
50301;SDS011;36550;50.472;19.744;2023-11-21T01:51:35;2.90;;;1.50;;
50301;SDS011;36550;50.472;19.744;2023-11-21T01:54:20;3.70;;;2.10;;
50301;SDS011;36550;50.472;19.744;2023-11-21T01:57:05;5.20;;;1.70;;
50301;SDS011;36550;50.472;19.744;2023-11-21T01:59:50;3.60;;;1.90;;
50301;SDS011;36550;50.472;19.744;2023-11-21T02:02:37;15.30;;;6.50;;
50301;SDS011;36550;50.472;19.744;2023-11-21T02:05:21;11.20;;;5.00;;
50301;SDS011;36550;50.472;19.744;2023-11-21T02:08:06;7.20;;;4.60;;
50301;SDS011;36550;50.472;19.744;2023-11-21T02:10:50;4.20;;;1.80;;
50301;SDS011;36550;50.472;19.744;2023-11-21T02:13:34;3.90;;;2.00;;
50301;SDS011;36550;50.472;19.744;2023-11-21T02:16:19;3.90;;;1.80;;
50301;SDS011;36550;50.472;19.744;2023-11-21T02:19:04;4.80;;;1.90;;
50301;SDS011;36550;50.472;19.744;2023-11-21T02:21:53;4.80;;;1.90;;
50301;SDS011;36550;50.472;19.744;2023-11-21T02:24:37;2.90;;;1.30;;
50301;SDS011;36550;50.472;19.744;2023-11-21T02:27:26;5.50;;;1.50;;
50301;SDS011;36550;50.472;19.744;2023-11-21T02:30:12;3.20;;;1.80;;
50301;SDS011;36550;50.472;19.744;2023-11-21T02:32:57;3.00;;;1.70;;
50301;SDS011;36550;50.472;19.744;2023-11-21T02:35:42;2.60;;;1.50;;
50301;SDS011;36550;50.472;19.744;2023-11-21T02:38:27;3.80;;;2.10;;
50301;SDS011;36550;50.472;19.744;2023-11-21T02:41:11;3.60;;;1.70;;
50301;SDS011;36550;50.472;19.744;2023-11-21T02:43:55;3.60;;;2.30;;
50301;SDS011;36550;50.472;19.744;2023-11-21T02:46:40;3.60;;;1.80;;
50301;SDS011;36550;50.472;19.744;2023-11-21T02:49:24;4.90;;;2.20;;
50301;SDS011;36550;50.472;19.744;2023-11-21T02:52:11;4.50;;;1.80;;
50301;SDS011;36550;50.472;19.744;2023-11-21T02:54:55;4.70;;;2.00;;
50301;SDS011;36550;50.472;19.744;2023-11-21T02:57:40;3.70;;;1.60;;
50301;SDS011;36550;50.472;19.744;2023-11-21T03:00:24;3.70;;;1.90;;
50301;SDS011;36550;50.472;19.744;2023-11-21T03:03:10;5.50;;;2.50;;
50301;SDS011;36550;50.472;19.744;2023-11-21T03:05:54;9.60;;;3.60;;
50301;SDS011;36550;50.472;19.744;2023-11-21T03:08:39;7.90;;;3.80;;
50301;SDS011;36550;50.472;19.744;2023-11-21T03:11:23;7.50;;;3.10;;
50301;SDS011;36550;50.472;19.744;2023-11-21T03:14:07;10.20;;;3.50;;
50301;SDS011;36550;50.472;19.744;2023-11-21T03:16:52;8.70;;;3.30;;
50301;SDS011;36550;50.472;19.744;2023-11-21T03:19:36;12.60;;;6.40;;
50301;SDS011;36550;50.472;19.744;2023-11-21T03:22:21;10.60;;;4.60;;
50301;SDS011;36550;50.472;19.744;2023-11-21T03:25:05;5.20;;;2.50;;
50301;SDS011;36550;50.472;19.744;2023-11-21T03:27:54;4.70;;;2.60;;
50301;SDS011;36550;50.472;19.744;2023-11-21T03:30:38;5.50;;;2.50;;
50301;SDS011;36550;50.472;19.744;2023-11-21T03:33:22;5.90;;;3.70;;
50301;SDS011;36550;50.472;19.744;2023-11-21T03:36:06;5.30;;;2.20;;
50301;SDS011;36550;50.472;19.744;2023-11-21T03:38:52;9.90;;;3.70;;
50301;SDS011;36550;50.472;19.744;2023-11-21T03:41:36;6.40;;;2.80;;
50301;SDS011;36550;50.472;19.744;2023-11-21T03:44:20;5.00;;;2.60;;
50301;SDS011;36550;50.472;19.744;2023-11-21T03:47:06;9.20;;;2.80;;
50301;SDS011;36550;50.472;19.744;2023-11-21T03:49:50;6.30;;;3.10;;
50301;SDS011;36550;50.472;19.744;2023-11-21T03:52:34;5.80;;;2.70;;
50301;SDS011;36550;50.472;19.744;2023-11-21T03:55:18;2.20;;;1.30;;
50301;SDS011;36550;50.472;19.744;2023-11-21T03:58:03;4.70;;;2.40;;
50301;SDS011;36550;50.472;19.744;2023-11-21T04:00:47;4.40;;;1.70;;
50301;SDS011;36550;50.472;19.744;2023-11-21T04:03:35;4.90;;;1.90;;
50301;SDS011;36550;50.472;19.744;2023-11-21T04:06:19;4.90;;;2.40;;
50301;SDS011;36550;50.472;19.744;2023-11-21T04:09:03;3.80;;;2.50;;
50301;SDS011;36550;50.472;19.744;2023-11-21T04:11:48;5.80;;;2.10;;
50301;SDS011;36550;50.472;19.744;2023-11-21T04:14:33;7.40;;;3.50;;
50301;SDS011;36550;50.472;19.744;2023-11-21T04:17:18;5.00;;;2.80;;
50301;SDS011;36550;50.472;19.744;2023-11-21T04:20:04;9.50;;;3.90;;
50301;SDS011;36550;50.472;19.744;2023-11-21T04:22:52;12.70;;;4.50;;
50301;SDS011;36550;50.472;19.744;2023-11-21T04:25:38;10.00;;;4.00;;
50301;SDS011;36550;50.472;19.744;2023-11-21T04:28:23;6.60;;;3.30;;
50301;SDS011;36550;50.472;19.744;2023-11-21T04:31:08;7.60;;;4.00;;
50301;SDS011;36550;50.472;19.744;2023-11-21T04:33:52;12.90;;;8.80;;
50301;SDS011;36550;50.472;19.744;2023-11-21T04:36:37;5.00;;;2.50;;
50301;SDS011;36550;50.472;19.744;2023-11-21T04:39:21;8.40;;;3.70;;
50301;SDS011;36550;50.472;19.744;2023-11-21T04:42:05;8.50;;;3.10;;
50301;SDS011;36550;50.472;19.744;2023-11-21T04:44:49;12.90;;;5.60;;
50301;SDS011;36550;50.472;19.744;2023-11-21T04:47:33;8.60;;;3.30;;
50301;SDS011;36550;50.472;19.744;2023-11-21T04:50:18;8.50;;;3.50;;
50301;SDS011;36550;50.472;19.744;2023-11-21T04:53:02;9.50;;;3.60;;
50301;SDS011;36550;50.472;19.744;2023-11-21T04:55:47;12.60;;;4.90;;
50301;SDS011;36550;50.472;19.744;2023-11-21T04:58:32;11.50;;;5.90;;
50301;SDS011;36550;50.472;19.744;2023-11-21T05:01:16;14.40;;;4.70;;
50301;SDS011;36550;50.472;19.744;2023-11-21T05:04:01;10.40;;;4.00;;
50301;SDS011;36550;50.472;19.744;2023-11-21T05:06:46;10.60;;;4.70;;
50301;SDS011;36550;50.472;19.744;2023-11-21T05:09:30;24.00;;;8.40;;
50301;SDS011;36550;50.472;19.744;2023-11-21T05:12:16;17.80;;;8.20;;
50301;SDS011;36550;50.472;19.744;2023-11-21T05:15:00;21.20;;;8.50;;
50301;SDS011;36550;50.472;19.744;2023-11-21T05:17:45;18.50;;;7.80;;
50301;SDS011;36550;50.472;19.744;2023-11-21T05:20:29;18.10;;;9.10;;
50301;SDS011;36550;50.472;19.744;2023-11-21T05:23:14;17.60;;;7.80;;
50301;SDS011;36550;50.472;19.744;2023-11-21T05:25:58;16.00;;;7.20;;
50301;SDS011;36550;50.472;19.744;2023-11-21T05:28:42;19.40;;;8.20;;
50301;SDS011;36550;50.472;19.744;2023-11-21T05:31:26;14.30;;;6.70;;
50301;SDS011;36550;50.472;19.744;2023-11-21T05:34:10;15.80;;;7.20;;
50301;SDS011;36550;50.472;19.744;2023-11-21T05:36:54;24.20;;;10.90;;
50301;SDS011;36550;50.472;19.744;2023-11-21T05:39:38;22.30;;;11.50;;
50301;SDS011;36550;50.472;19.744;2023-11-21T05:42:22;20.00;;;9.80;;
50301;SDS011;36550;50.472;19.744;2023-11-21T05:45:07;9.80;;;4.60;;
50301;SDS011;36550;50.472;19.744;2023-11-21T05:47:55;6.20;;;2.70;;
50301;SDS011;36550;50.472;19.744;2023-11-21T05:50:39;8.60;;;2.60;;
50301;SDS011;36550;50.472;19.744;2023-11-21T05:53:24;4.80;;;2.10;;
50301;SDS011;36550;50.472;19.744;2023-11-21T05:56:08;5.50;;;2.50;;
50301;SDS011;36550;50.472;19.744;2023-11-21T05:58:52;4.40;;;1.50;;
50301;SDS011;36550;50.472;19.744;2023-11-21T06:01:37;4.50;;;1.30;;
50301;SDS011;36550;50.472;19.744;2023-11-21T06:04:22;2.90;;;1.50;;
50301;SDS011;36550;50.472;19.744;2023-11-21T06:07:08;3.80;;;1.40;;
50301;SDS011;36550;50.472;19.744;2023-11-21T06:09:53;3.80;;;1.80;;
50301;SDS011;36550;50.472;19.744;2023-11-21T06:12:38;2.80;;;1.30;;
50301;SDS011;36550;50.472;19.744;2023-11-21T06:15:24;11.10;;;3.40;;
50301;SDS011;36550;50.472;19.744;2023-11-21T06:18:08;48.40;;;15.20;;
50301;SDS011;36550;50.472;19.744;2023-11-21T06:20:54;60.30;;;19.70;;
50301;SDS011;36550;50.472;19.744;2023-11-21T06:23:38;36.40;;;12.70;;
50301;SDS011;36550;50.472;19.744;2023-11-21T06:26:23;37.00;;;14.20;;
50301;SDS011;36550;50.472;19.744;2023-11-21T06:29:08;51.50;;;21.20;;
50301;SDS011;36550;50.472;19.744;2023-11-21T06:31:52;49.50;;;22.00;;
50301;SDS011;36550;50.472;19.744;2023-11-21T06:34:39;59.30;;;24.50;;
50301;SDS011;36550;50.472;19.744;2023-11-21T06:37:24;23.10;;;11.40;;
50301;SDS011;36550;50.472;19.744;2023-11-21T06:40:08;24.90;;;13.70;;
50301;SDS011;36550;50.472;19.744;2023-11-21T06:42:53;13.90;;;7.20;;
50301;SDS011;36550;50.472;19.744;2023-11-21T06:45:38;22.50;;;10.90;;
50301;SDS011;36550;50.472;19.744;2023-11-21T06:48:22;41.00;;;17.90;;
50301;SDS011;36550;50.472;19.744;2023-11-21T06:51:07;32.20;;;15.10;;
50301;SDS011;36550;50.472;19.744;2023-11-21T06:53:51;35.40;;;16.20;;
50301;SDS011;36550;50.472;19.744;2023-11-21T06:56:35;29.90;;;14.90;;
50301;SDS011;36550;50.472;19.744;2023-11-21T06:59:20;24.20;;;13.60;;
50301;SDS011;36550;50.472;19.744;2023-11-21T07:02:04;26.80;;;14.50;;
50301;SDS011;36550;50.472;19.744;2023-11-21T07:04:51;23.20;;;11.20;;
50301;SDS011;36550;50.472;19.744;2023-11-21T07:07:36;22.40;;;10.90;;
50301;SDS011;36550;50.472;19.744;2023-11-21T07:10:21;8.80;;;3.50;;
50301;SDS011;36550;50.472;19.744;2023-11-21T07:13:05;7.60;;;3.20;;
50301;SDS011;36550;50.472;19.744;2023-11-21T07:15:51;5.40;;;2.20;;
50301;SDS011;36550;50.472;19.744;2023-11-21T07:18:36;5.30;;;2.30;;
50301;SDS011;36550;50.472;19.744;2023-11-21T07:21:20;5.80;;;2.70;;
50301;SDS011;36550;50.472;19.744;2023-11-21T07:24:05;6.10;;;3.10;;
50301;SDS011;36550;50.472;19.744;2023-11-21T07:26:50;11.50;;;4.50;;
50301;SDS011;36550;50.472;19.744;2023-11-21T07:29:34;17.20;;;7.40;;
50301;SDS011;36550;50.472;19.744;2023-11-21T07:32:18;9.80;;;4.20;;
50301;SDS011;36550;50.472;19.744;2023-11-21T07:35:03;7.60;;;3.40;;
50301;SDS011;36550;50.472;19.744;2023-11-21T07:37:47;12.80;;;4.60;;
50301;SDS011;36550;50.472;19.744;2023-11-21T07:40:32;9.00;;;4.00;;
50301;SDS011;36550;50.472;19.744;2023-11-21T07:43:16;11.00;;;4.80;;
50301;SDS011;36550;50.472;19.744;2023-11-21T07:46:04;13.90;;;6.60;;
50301;SDS011;36550;50.472;19.744;2023-11-21T07:48:48;56.30;;;22.10;;
50301;SDS011;36550;50.472;19.744;2023-11-21T07:51:33;117.20;;;41.70;;
50301;SDS011;36550;50.472;19.744;2023-11-21T07:54:17;86.80;;;27.60;;
50301;SDS011;36550;50.472;19.744;2023-11-21T07:57:01;43.80;;;15.80;;
50301;SDS011;36550;50.472;19.744;2023-11-21T07:59:47;33.80;;;12.30;;
50301;SDS011;36550;50.472;19.744;2023-11-21T08:02:32;45.30;;;14.00;;
50301;SDS011;36550;50.472;19.744;2023-11-21T08:05:16;37.70;;;13.90;;
50301;SDS011;36550;50.472;19.744;2023-11-21T08:08:00;44.40;;;15.40;;
50301;SDS011;36550;50.472;19.744;2023-11-21T08:10:45;48.90;;;16.50;;
50301;SDS011;36550;50.472;19.744;2023-11-21T08:13:40;57.00;;;19.60;;
50301;SDS011;36550;50.472;19.744;2023-11-21T08:16:24;43.60;;;17.00;;
50301;SDS011;36550;50.472;19.744;2023-11-21T08:19:08;25.00;;;10.50;;
50301;SDS011;36550;50.472;19.744;2023-11-21T08:21:53;37.30;;;15.50;;
50301;SDS011;36550;50.472;19.744;2023-11-21T08:24:38;23.40;;;10.50;;
50301;SDS011;36550;50.472;19.744;2023-11-21T08:27:22;31.80;;;12.30;;
50301;SDS011;36550;50.472;19.744;2023-11-21T08:30:06;32.10;;;13.40;;
50301;SDS011;36550;50.472;19.744;2023-11-21T08:32:51;33.80;;;13.10;;
50301;SDS011;36550;50.472;19.744;2023-11-21T08:35:38;30.80;;;12.40;;
50301;SDS011;36550;50.472;19.744;2023-11-21T08:38:22;88.70;;;29.00;;
50301;SDS011;36550;50.472;19.744;2023-11-21T08:41:06;52.30;;;16.90;;
50301;SDS011;36550;50.472;19.744;2023-11-21T08:43:51;51.00;;;14.30;;
50301;SDS011;36550;50.472;19.744;2023-11-21T08:46:36;36.00;;;10.40;;
50301;SDS011;36550;50.472;19.744;2023-11-21T08:49:22;37.60;;;10.30;;
50301;SDS011;36550;50.472;19.744;2023-11-21T08:52:07;25.90;;;8.60;;
50301;SDS011;36550;50.472;19.744;2023-11-21T08:54:52;24.30;;;8.70;;
50301;SDS011;36550;50.472;19.744;2023-11-21T08:57:40;14.30;;;6.00;;
50301;SDS011;36550;50.472;19.744;2023-11-21T09:00:27;13.50;;;6.00;;
50301;SDS011;36550;50.472;19.744;2023-11-21T09:03:11;12.40;;;5.80;;
50301;SDS011;36550;50.472;19.744;2023-11-21T09:05:55;11.80;;;6.10;;
50301;SDS011;36550;50.472;19.744;2023-11-21T09:08:40;10.70;;;5.70;;
50301;SDS011;36550;50.472;19.744;2023-11-21T09:11:24;8.20;;;4.70;;
50301;SDS011;36550;50.472;19.744;2023-11-21T09:14:09;10.60;;;4.90;;
50301;SDS011;36550;50.472;19.744;2023-11-21T09:16:56;10.30;;;5.50;;
50301;SDS011;36550;50.472;19.744;2023-11-21T09:19:41;8.90;;;4.50;;
50301;SDS011;36550;50.472;19.744;2023-11-21T09:22:25;11.80;;;4.60;;
50301;SDS011;36550;50.472;19.744;2023-11-21T09:25:09;15.40;;;8.00;;
50301;SDS011;36550;50.472;19.744;2023-11-21T09:27:54;11.60;;;6.10;;
50301;SDS011;36550;50.472;19.744;2023-11-21T09:30:40;7.30;;;3.80;;
50301;SDS011;36550;50.472;19.744;2023-11-21T09:33:24;6.20;;;3.30;;
50301;SDS011;36550;50.472;19.744;2023-11-21T09:36:12;11.10;;;4.80;;
50301;SDS011;36550;50.472;19.744;2023-11-21T09:38:59;8.80;;;3.40;;
50301;SDS011;36550;50.472;19.744;2023-11-21T09:41:49;10.40;;;3.80;;
50301;SDS011;36550;50.472;19.744;2023-11-21T09:44:35;5.40;;;2.90;;
50301;SDS011;36550;50.472;19.744;2023-11-21T09:47:29;5.80;;;2.70;;
50301;SDS011;36550;50.472;19.744;2023-11-21T09:50:14;7.20;;;4.30;;
50301;SDS011;36550;50.472;19.744;2023-11-21T09:55:49;27.80;;;12.30;;
50301;SDS011;36550;50.472;19.744;2023-11-21T09:58:34;39.40;;;20.70;;
50301;SDS011;36550;50.472;19.744;2023-11-21T10:01:19;74.50;;;35.50;;
50301;SDS011;36550;50.472;19.744;2023-11-21T10:04:04;62.20;;;30.30;;
50301;SDS011;36550;50.472;19.744;2023-11-21T10:06:55;58.20;;;27.90;;
50301;SDS011;36550;50.472;19.744;2023-11-21T10:09:40;21.60;;;10.60;;
50301;SDS011;36550;50.472;19.744;2023-11-21T10:12:24;23.10;;;14.20;;
50301;SDS011;36550;50.472;19.744;2023-11-21T10:17:57;30.90;;;16.90;;
50301;SDS011;36550;50.472;19.744;2023-11-21T10:20:42;17.00;;;8.50;;
50301;SDS011;36550;50.472;19.744;2023-11-21T10:23:27;27.30;;;14.10;;
50301;SDS011;36550;50.472;19.744;2023-11-21T10:26:12;13.00;;;7.50;;
50301;SDS011;36550;50.472;19.744;2023-11-21T10:29:01;14.30;;;7.60;;
50301;SDS011;36550;50.472;19.744;2023-11-21T10:31:49;14.00;;;8.20;;
50301;SDS011;36550;50.472;19.744;2023-11-21T10:34:34;9.00;;;4.20;;
50301;SDS011;36550;50.472;19.744;2023-11-21T10:37:19;9.50;;;4.20;;
50301;SDS011;36550;50.472;19.744;2023-11-21T10:40:04;10.60;;;5.20;;
50301;SDS011;36550;50.472;19.744;2023-11-21T10:42:48;8.60;;;4.50;;
50301;SDS011;36550;50.472;19.744;2023-11-21T10:45:33;8.70;;;4.80;;
50301;SDS011;36550;50.472;19.744;2023-11-21T10:48:17;12.50;;;6.00;;
50301;SDS011;36550;50.472;19.744;2023-11-21T10:51:06;12.10;;;6.40;;
50301;SDS011;36550;50.472;19.744;2023-11-21T10:53:52;16.20;;;7.30;;
50301;SDS011;36550;50.472;19.744;2023-11-21T10:56:36;14.50;;;7.90;;
50301;SDS011;36550;50.472;19.744;2023-11-21T10:59:25;12.20;;;5.80;;
50301;SDS011;36550;50.472;19.744;2023-11-21T11:02:18;20.20;;;8.70;;
50301;SDS011;36550;50.472;19.744;2023-11-21T11:05:09;20.20;;;8.50;;
50301;SDS011;36550;50.472;19.744;2023-11-21T11:10:50;17.20;;;6.70;;
50301;SDS011;36550;50.472;19.744;2023-11-21T11:13:43;11.70;;;5.40;;
50301;SDS011;36550;50.472;19.744;2023-11-21T11:16:41;13.50;;;5.80;;
50301;SDS011;36550;50.472;19.744;2023-11-21T11:22:31;10.50;;;5.50;;
50301;SDS011;36550;50.472;19.744;2023-11-21T11:25:27;8.60;;;4.90;;
50301;SDS011;36550;50.472;19.744;2023-11-21T11:31:42;8.60;;;4.00;;
50301;SDS011;36550;50.472;19.744;2023-11-21T11:34:53;7.90;;;4.10;;
50301;SDS011;36550;50.472;19.744;2023-11-21T11:37:45;13.10;;;5.90;;
50301;SDS011;36550;50.472;19.744;2023-11-21T11:40:44;14.00;;;6.70;;
50301;SDS011;36550;50.472;19.744;2023-11-21T11:43:30;15.50;;;6.80;;
50301;SDS011;36550;50.472;19.744;2023-11-21T11:46:16;17.90;;;8.80;;
50301;SDS011;36550;50.472;19.744;2023-11-21T11:49:04;8.50;;;5.10;;
50301;SDS011;36550;50.472;19.744;2023-11-21T11:51:48;10.70;;;5.80;;
50301;SDS011;36550;50.472;19.744;2023-11-21T11:54:35;7.90;;;3.50;;
50301;SDS011;36550;50.472;19.744;2023-11-21T11:57:23;9.70;;;4.90;;
50301;SDS011;36550;50.472;19.744;2023-11-21T12:03:00;10.20;;;5.40;;
50301;SDS011;36550;50.472;19.744;2023-11-21T12:05:47;16.50;;;8.30;;
50301;SDS011;36550;50.472;19.744;2023-11-21T12:08:32;25.80;;;12.20;;
50301;SDS011;36550;50.472;19.744;2023-11-21T12:11:18;22.50;;;11.30;;
50301;SDS011;36550;50.472;19.744;2023-11-21T12:14:02;10.00;;;5.10;;
50301;SDS011;36550;50.472;19.744;2023-11-21T12:16:50;10.30;;;5.30;;
50301;SDS011;36550;50.472;19.744;2023-11-21T12:19:35;7.00;;;4.20;;
50301;SDS011;36550;50.472;19.744;2023-11-21T12:22:20;5.80;;;2.80;;
50301;SDS011;36550;50.472;19.744;2023-11-21T12:25:05;4.90;;;2.30;;
50301;SDS011;36550;50.472;19.744;2023-11-21T12:27:51;3.50;;;1.90;;
50301;SDS011;36550;50.472;19.744;2023-11-21T12:30:36;3.80;;;2.00;;
50301;SDS011;36550;50.472;19.744;2023-11-21T12:33:22;5.20;;;1.80;;
50301;SDS011;36550;50.472;19.744;2023-11-21T12:36:06;4.70;;;2.00;;
50301;SDS011;36550;50.472;19.744;2023-11-21T12:38:54;4.00;;;1.80;;
50301;SDS011;36550;50.472;19.744;2023-11-21T12:41:38;3.50;;;1.80;;
50301;SDS011;36550;50.472;19.744;2023-11-21T12:44:23;5.00;;;1.70;;
50301;SDS011;36550;50.472;19.744;2023-11-21T12:47:07;4.70;;;1.50;;
50301;SDS011;36550;50.472;19.744;2023-11-21T12:49:52;5.20;;;2.80;;
50301;SDS011;36550;50.472;19.744;2023-11-21T12:52:37;4.00;;;1.70;;
50301;SDS011;36550;50.472;19.744;2023-11-21T12:55:23;12.40;;;7.70;;
50301;SDS011;36550;50.472;19.744;2023-11-21T12:58:08;19.50;;;11.60;;
50301;SDS011;36550;50.472;19.744;2023-11-21T13:03:37;11.40;;;6.00;;
50301;SDS011;36550;50.472;19.744;2023-11-21T13:06:24;7.90;;;3.40;;
50301;SDS011;36550;50.472;19.744;2023-11-21T13:09:10;6.90;;;4.00;;
50301;SDS011;36550;50.472;19.744;2023-11-21T13:12:04;13.70;;;8.00;;
50301;SDS011;36550;50.472;19.744;2023-11-21T13:14:52;21.50;;;13.20;;
50301;SDS011;36550;50.472;19.744;2023-11-21T13:17:36;30.60;;;17.20;;
50301;SDS011;36550;50.472;19.744;2023-11-21T13:20:20;26.80;;;14.80;;
50301;SDS011;36550;50.472;19.744;2023-11-21T13:23:09;16.60;;;8.30;;
50301;SDS011;36550;50.472;19.744;2023-11-21T13:26:01;14.70;;;6.20;;
50301;SDS011;36550;50.472;19.744;2023-11-21T13:28:48;14.00;;;8.20;;
50301;SDS011;36550;50.472;19.744;2023-11-21T13:31:32;35.00;;;19.30;;
50301;SDS011;36550;50.472;19.744;2023-11-21T13:34:20;26.40;;;14.00;;
50301;SDS011;36550;50.472;19.744;2023-11-21T13:37:06;31.20;;;20.60;;
50301;SDS011;36550;50.472;19.744;2023-11-21T13:39:51;33.80;;;23.10;;
50301;SDS011;36550;50.472;19.744;2023-11-21T13:42:36;27.80;;;18.40;;
50301;SDS011;36550;50.472;19.744;2023-11-21T13:45:21;31.00;;;18.10;;
50301;SDS011;36550;50.472;19.744;2023-11-21T13:53:46;34.10;;;19.20;;
50301;SDS011;36550;50.472;19.744;2023-11-21T13:56:33;34.30;;;17.30;;
50301;SDS011;36550;50.472;19.744;2023-11-21T13:59:18;31.40;;;18.50;;
50301;SDS011;36550;50.472;19.744;2023-11-21T14:02:09;25.10;;;14.70;;
50301;SDS011;36550;50.472;19.744;2023-11-21T14:05:02;37.40;;;20.80;;
50301;SDS011;36550;50.472;19.744;2023-11-21T14:07:53;41.20;;;22.00;;
50301;SDS011;36550;50.472;19.744;2023-11-21T14:10:39;42.20;;;21.80;;
50301;SDS011;36550;50.472;19.744;2023-11-21T14:13:34;42.40;;;20.40;;
50301;SDS011;36550;50.472;19.744;2023-11-21T14:16:19;37.70;;;21.60;;
50301;SDS011;36550;50.472;19.744;2023-11-21T14:19:05;25.20;;;14.90;;
50301;SDS011;36550;50.472;19.744;2023-11-21T14:22:01;71.80;;;39.80;;
50301;SDS011;36550;50.472;19.744;2023-11-21T14:24:45;106.60;;;56.10;;
50301;SDS011;36550;50.472;19.744;2023-11-21T14:27:32;168.30;;;87.10;;
50301;SDS011;36550;50.472;19.744;2023-11-21T14:30:17;277.00;;;129.40;;
50301;SDS011;36550;50.472;19.744;2023-11-21T14:33:03;239.90;;;115.60;;
50301;SDS011;36550;50.472;19.744;2023-11-21T14:35:47;265.50;;;135.60;;
50301;SDS011;36550;50.472;19.744;2023-11-21T14:38:32;244.00;;;126.60;;
50301;SDS011;36550;50.472;19.744;2023-11-21T14:41:16;242.90;;;139.30;;
50301;SDS011;36550;50.472;19.744;2023-11-21T14:44:01;163.20;;;98.50;;
50301;SDS011;36550;50.472;19.744;2023-11-21T14:46:51;155.40;;;90.20;;
50301;SDS011;36550;50.472;19.744;2023-11-21T14:49:38;136.60;;;82.80;;
50301;SDS011;36550;50.472;19.744;2023-11-21T14:52:36;138.50;;;82.00;;
50301;SDS011;36550;50.472;19.744;2023-11-21T14:55:30;36.90;;;18.90;;
50301;SDS011;36550;50.472;19.744;2023-11-21T14:58:31;31.00;;;15.80;;
50301;SDS011;36550;50.472;19.744;2023-11-21T15:01:16;35.50;;;14.60;;
50301;SDS011;36550;50.472;19.744;2023-11-21T15:04:10;29.50;;;14.80;;
50301;SDS011;36550;50.472;19.744;2023-11-21T15:07:14;39.30;;;17.00;;
50301;SDS011;36550;50.472;19.744;2023-11-21T15:09:58;30.00;;;13.90;;
50301;SDS011;36550;50.472;19.744;2023-11-21T15:12:42;38.50;;;15.60;;
50301;SDS011;36550;50.472;19.744;2023-11-21T15:15:28;29.30;;;13.70;;
50301;SDS011;36550;50.472;19.744;2023-11-21T15:18:14;23.70;;;12.80;;
50301;SDS011;36550;50.472;19.744;2023-11-21T15:20:58;28.20;;;12.50;;
50301;SDS011;36550;50.472;19.744;2023-11-21T15:23:42;27.80;;;14.20;;
50301;SDS011;36550;50.472;19.744;2023-11-21T15:26:27;27.10;;;13.10;;
50301;SDS011;36550;50.472;19.744;2023-11-21T15:29:12;28.50;;;13.40;;
50301;SDS011;36550;50.472;19.744;2023-11-21T15:31:57;32.20;;;15.30;;
50301;SDS011;36550;50.472;19.744;2023-11-21T15:34:42;28.80;;;14.20;;
50301;SDS011;36550;50.472;19.744;2023-11-21T15:37:26;29.30;;;14.10;;
50301;SDS011;36550;50.472;19.744;2023-11-21T15:40:13;28.90;;;13.90;;
50301;SDS011;36550;50.472;19.744;2023-11-21T15:42:58;33.20;;;14.00;;
50301;SDS011;36550;50.472;19.744;2023-11-21T15:45:43;26.30;;;12.50;;
50301;SDS011;36550;50.472;19.744;2023-11-21T15:48:28;25.80;;;12.70;;
50301;SDS011;36550;50.472;19.744;2023-11-21T15:51:15;30.20;;;13.80;;
50301;SDS011;36550;50.472;19.744;2023-11-21T15:54:01;28.50;;;14.00;;
50301;SDS011;36550;50.472;19.744;2023-11-21T15:56:49;29.20;;;12.90;;
50301;SDS011;36550;50.472;19.744;2023-11-21T15:59:33;24.60;;;12.00;;
50301;SDS011;36550;50.472;19.744;2023-11-21T16:02:18;24.10;;;11.80;;
50301;SDS011;36550;50.472;19.744;2023-11-21T16:05:04;25.30;;;12.60;;
50301;SDS011;36550;50.472;19.744;2023-11-21T16:07:49;26.70;;;11.40;;
50301;SDS011;36550;50.472;19.744;2023-11-21T16:10:34;28.60;;;11.60;;
50301;SDS011;36550;50.472;19.744;2023-11-21T16:13:20;25.20;;;11.50;;
50301;SDS011;36550;50.472;19.744;2023-11-21T16:16:05;23.10;;;11.30;;
50301;SDS011;36550;50.472;19.744;2023-11-21T16:18:49;26.40;;;11.30;;
50301;SDS011;36550;50.472;19.744;2023-11-21T16:21:34;19.40;;;9.90;;
50301;SDS011;36550;50.472;19.744;2023-11-21T16:24:18;27.10;;;10.60;;
50301;SDS011;36550;50.472;19.744;2023-11-21T16:27:03;19.50;;;9.40;;
50301;SDS011;36550;50.472;19.744;2023-11-21T16:29:48;23.20;;;11.10;;
50301;SDS011;36550;50.472;19.744;2023-11-21T16:32:32;19.00;;;9.30;;
50301;SDS011;36550;50.472;19.744;2023-11-21T16:35:19;17.80;;;9.00;;